Time;durP1;ratioP1;P1;durP2;ratioP2;P2;SDS_P1;SDS_P2;PMS_P1;PMS_P2;Temp;Humidity;BMP_temperature;BMP_pressure;BME280_temperature;BME280_humidity;BME280_pressure;Samples;Min_cycle;Max_cycle;Signal;HPM_P1;HPM_P2
2023/03/29 00:04:53;;;;;;;10.10;4.30;;;;;;;-3.17;62.30;100417.16;219588;1254;139302;-67
2023/03/29 00:10:03;;;;;;;7.40;4.20;;;;;;;-3.19;62.53;100412.83;220232;1253;139757;-66
2023/03/29 00:15:07;;;;;;;10.80;4.80;;;;;;;-3.21;62.80;100410.89;220985;1253;139590;-65
2023/03/29 00:20:12;;;;;;;8.10;4.80;;;;;;;-3.22;62.86;100408.52;221040;1253;141189;-65
2023/03/29 00:25:16;;;;;;;12.00;7.00;;;;;;;-3.23;62.89;100410.33;221078;1253;139438;-66
2023/03/29 00:30:22;;;;;;;8.70;4.30;;;;;;;-3.14;62.76;100408.39;219766;1253;151164;-64
2023/03/29 00:35:27;;;;;;;9.20;5.50;;;;;;;-3.05;62.98;100405.31;218927;1254;141062;-63
2023/03/29 00:40:33;;;;;;;11.00;5.30;;;;;;;-3.02;63.32;100408.07;220026;1253;139995;-67
2023/03/29 00:45:39;;;;;;;20.80;10.70;;;;;;;-3.02;63.28;100405.27;219203;1251;139953;-65
2023/03/29 00:50:54;;;;;;;34.40;10.70;;;;;;;-3.04;63.05;100406.69;218555;1254;140305;-66
2023/03/29 00:56:19;;;;;;;28.60;10.60;;;;;;;-3.11;63.36;100404.52;218790;1252;139894;-64
2023/03/29 01:01:53;;;;;;;19.20;8.70;;;;;;;-3.20;63.25;100402.08;218755;1257;139800;-68
2023/03/29 01:07:16;;;;;;;12.50;7.40;;;;;;;-3.27;63.34;100405.33;219704;1253;141343;-71
2023/03/29 01:12:31;;;;;;;33.20;10.00;;;;;;;-3.36;63.45;100400.88;218649;1254;139356;-63
2023/03/29 01:17:37;;;;;;;20.50;8.20;;;;;;;-3.45;63.67;100401.10;218099;1254;139490;-68
2023/03/29 01:23:06;;;;;;;16.60;7.70;;;;;;;-3.54;63.75;100396.30;218960;1251;140312;-65
2023/03/29 01:28:30;;;;;;;17.80;6.60;;;;;;;-3.64;63.91;100397.31;219031;1256;139350;-66
2023/03/29 01:33:47;;;;;;;11.70;5.90;;;;;;;-3.74;64.18;100391.23;218180;1251;139277;-65
2023/03/29 01:38:56;;;;;;;18.10;6.80;;;;;;;-3.83;64.32;100393.34;219132;1253;140207;-63
2023/03/29 01:44:33;;;;;;;12.40;6.10;;;;;;;-3.88;64.41;100388.39;219855;1251;139503;-63
2023/03/29 01:49:44;;;;;;;16.70;5.90;;;;;;;-3.91;64.63;100389.14;219384;1254;139739;-66
2023/03/29 01:55:11;;;;;;;15.60;6.10;;;;;;;-3.94;64.63;100396.13;219488;1254;141711;-62
2023/03/29 02:00:21;;;;;;;15.10;5.50;;;;;;;-3.95;64.57;100388.77;218783;1257;140541;-64
2023/03/29 02:05:30;;;;;;;18.40;5.70;;;;;;;-3.89;64.68;100385.53;220906;1251;140698;-68
2023/03/29 02:10:36;;;;;;;13.00;6.00;;;;;;;-3.84;64.67;100382.50;219952;1253;139649;-65
2023/03/29 02:15:44;;;;;;;14.70;8.20;;;;;;;-3.83;64.92;100382.07;220520;1254;140900;-66
2023/03/29 02:20:50;;;;;;;10.20;5.00;;;;;;;-3.81;64.86;100381.88;221021;1253;140347;-66
2023/03/29 02:25:55;;;;;;;12.50;5.50;;;;;;;-3.82;64.74;100381.10;221088;1254;140191;-68
2023/03/29 02:31:32;;;;;;;10.50;4.20;;;;;;;-3.91;64.91;100376.45;219700;1253;139324;-66
2023/03/29 02:36:53;;;;;;;12.90;5.50;;;;;;;-4.15;65.12;100375.20;218787;1255;162008;-66
2023/03/29 02:41:59;;;;;;;8.60;3.20;;;;;;;-4.35;65.33;100377.13;220077;1254;140046;-66
2023/03/29 02:47:16;;;;;;;10.10;3.40;;;;;;;-4.47;66.01;100380.21;218898;1253;140084;-65
2023/03/29 02:52:40;;;;;;;8.50;4.40;;;;;;;-4.58;66.32;100374.68;219301;1255;139639;-66
2023/03/29 02:57:45;;;;;;;16.00;6.30;;;;;;;-4.66;66.81;100376.05;218437;1256;139733;-64
2023/03/29 03:02:50;;;;;;;7.80;4.20;;;;;;;-4.70;66.90;100379.80;218681;1255;140206;-64
2023/03/29 03:07:57;;;;;;;15.00;7.90;;;;;;;-4.73;67.12;100375.86;219178;1253;139638;-66
2023/03/29 03:13:02;;;;;;;17.40;6.70;;;;;;;-4.77;67.32;100377.23;218148;1256;139205;-66
2023/03/29 03:18:08;;;;;;;8.80;5.90;;;;;;;-4.85;67.46;100378.02;219227;1251;139405;-66
2023/03/29 03:23:12;;;;;;;12.50;5.40;;;;;;;-4.96;67.60;100373.74;219166;1253;139008;-65
2023/03/29 03:28:17;;;;;;;15.40;5.30;;;;;;;-5.08;67.74;100377.57;219498;1254;139105;-66
2023/03/29 03:33:21;;;;;;;10.00;5.70;;;;;;;-5.19;67.99;100381.00;219122;1253;140397;-66
2023/03/29 03:38:25;;;;;;;14.00;5.50;;;;;;;-5.28;68.24;100383.98;219107;1253;140043;-63
2023/03/29 03:43:30;;;;;;;13.70;6.30;;;;;;;-5.31;68.58;100389.63;220139;1253;139508;-66
2023/03/29 03:48:35;;;;;;;15.60;6.90;;;;;;;-5.36;68.78;100393.98;219157;1254;139398;-64
2023/03/29 03:53:41;;;;;;;92.30;27.20;;;;;;;-5.44;68.76;100397.33;220464;1254;139926;-65
2023/03/29 03:58:46;;;;;;;30.20;10.60;;;;;;;-5.39;68.77;100396.27;220446;1256;140009;-65
2023/03/29 04:03:52;;;;;;;37.30;15.20;;;;;;;-5.37;68.83;100399.80;218160;1256;139912;-64
2023/03/29 04:08:58;;;;;;;37.00;19.20;;;;;;;-5.43;69.21;100400.55;220970;1253;139635;-65
2023/03/29 04:14:03;;;;;;;22.50;11.10;;;;;;;-5.50;69.52;100398.66;220341;1254;139982;-64
2023/03/29 04:19:07;;;;;;;17.90;10.10;;;;;;;-5.59;69.49;100396.60;220779;1253;140685;-64
2023/03/29 04:24:12;;;;;;;16.50;8.80;;;;;;;-5.71;69.61;100394.35;220962;1251;139824;-64
2023/03/29 04:29:18;;;;;;;27.70;12.90;;;;;;;-5.76;69.74;100390.38;220902;1254;139977;-65
2023/03/29 04:34:22;;;;;;;19.80;12.20;;;;;;;-5.65;70.16;100384.43;220893;1251;142087;-65
2023/03/29 04:39:33;;;;;;;22.80;11.20;;;;;;;-5.55;70.41;100385.02;218321;1251;140606;-63
2023/03/29 04:44:39;;;;;;;28.20;16.00;;;;;;;-5.50;70.62;100386.87;219141;1251;139814;-64
2023/03/29 04:49:43;;;;;;;27.30;13.70;;;;;;;-5.41;70.83;100392.47;219321;1251;140806;-61
2023/03/29 04:54:48;;;;;;;31.30;14.60;;;;;;;-5.36;70.75;100392.73;218701;1251;139804;-63
2023/03/29 04:59:52;;;;;;;30.70;14.40;;;;;;;-5.35;70.88;100393.52;219059;1253;140419;-63
2023/03/29 05:04:57;;;;;;;35.20;17.40;;;;;;;-5.34;70.81;100390.73;218584;1256;142206;-61
2023/03/29 05:10:02;;;;;;;35.40;19.10;;;;;;;-5.21;71.08;100392.77;218848;1251;140321;-62
2023/03/29 05:15:08;;;;;;;38.50;20.20;;;;;;;-5.08;71.09;100394.02;218573;1255;140550;-63
2023/03/29 05:20:12;;;;;;;27.70;16.50;;;;;;;-4.93;71.52;100393.95;218400;1251;139806;-63
2023/03/29 05:25:18;;;;;;;30.60;13.30;;;;;;;-4.80;71.55;100394.26;219148;1254;140364;-63
2023/03/29 05:30:22;;;;;;;27.10;13.50;;;;;;;-4.68;71.72;100393.66;218275;1252;139869;-61
2023/03/29 05:35:27;;;;;;;26.50;13.70;;;;;;;-4.51;71.68;100395.23;218797;1256;141630;-64
2023/03/29 05:40:32;;;;;;;25.40;13.90;;;;;;;-4.26;71.41;100396.91;219086;1253;140224;-64
2023/03/29 05:45:37;;;;;;;23.80;11.80;;;;;;;-3.94;71.28;100392.00;218823;1251;139533;-65
2023/03/29 05:50:47;;;;;;;24.00;13.50;;;;;;;-3.70;71.18;100390.69;219324;1251;139777;-65
2023/03/29 05:55:53;;;;;;;22.00;11.60;;;;;;;-3.49;70.98;100392.95;220754;1251;139490;-68
2023/03/29 06:00:59;;;;;;;20.50;11.40;;;;;;;-3.31;70.55;100387.61;220250;1251;140271;-70
2023/03/29 06:06:04;;;;;;;14.60;7.30;;;;;;;-3.14;70.17;100391.54;220866;1251;142170;-73
2023/03/29 06:11:09;;;;;;;23.20;10.80;;;;;;;-2.97;70.01;100389.34;219576;1255;139430;-73
2023/03/29 06:16:13;;;;;;;18.70;9.20;;;;;;;-2.73;69.51;100392.00;221212;1254;139932;-73
2023/03/29 06:21:18;;;;;;;21.30;11.70;;;;;;;-2.45;69.27;100385.33;220714;1253;139614;-72
2023/03/29 06:26:21;;;;;;;17.10;12.10;;;;;;;-2.22;68.99;100384.34;220670;1251;140212;-69
2023/03/29 06:31:25;;;;;;;17.70;8.70;;;;;;;-2.05;68.45;100381.86;219380;1253;140000;-66
2023/03/29 06:36:30;;;;;;;12.50;8.10;;;;;;;-1.86;68.31;100381.71;219599;1256;139533;-67
2023/03/29 06:41:34;;;;;;;16.50;7.70;;;;;;;-1.66;67.98;100380.45;220206;1254;139481;-68
2023/03/29 06:46:38;;;;;;;10.60;7.20;;;;;;;-1.48;67.79;100384.34;219559;1255;139263;-69
2023/03/29 06:51:41;;;;;;;8.20;5.50;;;;;;;-1.30;67.59;100382.52;218453;1256;139663;-67
2023/03/29 06:56:46;;;;;;;8.60;5.70;;;;;;;-1.08;66.77;100381.98;218944;1252;139120;-66
2023/03/29 07:01:51;;;;;;;10.60;6.50;;;;;;;-0.68;66.23;100374.02;219025;1255;139540;-69
2023/03/29 07:07:04;;;;;;;11.90;6.20;;;;;;;-0.28;65.90;100378.46;218404;1254;139074;-71
2023/03/29 07:12:09;;;;;;;8.50;5.30;;;;;;;0.07;65.48;100371.33;218571;1251;138889;-71
2023/03/29 07:17:15;;;;;;;13.80;7.20;;;;;;;0.77;65.08;100365.81;218746;1254;138849;-68
2023/03/29 07:22:23;;;;;;;11.90;5.60;;;;;;;2.09;64.13;100369.29;219575;1255;139550;-70
2023/03/29 07:27:27;;;;;;;9.40;6.00;;;;;;;3.79;63.28;100369.34;218459;1251;139130;-68
2023/03/29 07:32:32;;;;;;;9.70;5.40;;;;;;;5.58;61.86;100363.77;219864;1257;139566;-69
2023/03/29 07:37:36;;;;;;;9.00;5.70;;;;;;;6.95;60.19;100366.09;220037;1254;385372;-67
2023/03/29 07:42:45;;;;;;;9.90;5.50;;;;;;;7.70;58.61;100359.29;221028;1254;139741;-69
2023/03/29 07:47:54;;;;;;;8.20;5.00;;;;;;;8.22;57.14;100357.04;218995;1256;140760;-68
2023/03/29 07:52:59;;;;;;;7.50;5.00;;;;;;;8.73;56.12;100354.11;221123;1252;139096;-67
2023/03/29 07:58:03;;;;;;;8.80;4.10;;;;;;;9.17;54.71;100347.92;218736;1253;139161;-70
2023/03/29 08:03:11;;;;;;;9.20;4.80;;;;;;;9.21;53.52;100343.08;220946;1253;140342;-70
2023/03/29 08:08:15;;;;;;;7.10;3.70;;;;;;;9.28;52.75;100344.45;220956;1253;139787;-67
2023/03/29 08:13:18;;;;;;;6.00;3.70;;;;;;;9.17;51.65;100341.22;219603;1253;142027;-70
2023/03/29 08:18:22;;;;;;;5.60;3.20;;;;;;;8.98;51.09;100336.66;220783;1254;139258;-69
2023/03/29 08:23:26;;;;;;;5.40;4.10;;;;;;;8.86;50.46;100336.45;220787;1256;139534;-69
2023/03/29 08:28:31;;;;;;;6.40;4.30;;;;;;;8.70;50.06;100327.82;218274;1254;139890;-69
2023/03/29 08:33:35;;;;;;;8.50;5.20;;;;;;;8.58;49.78;100331.60;219708;1254;140481;-75
2023/03/29 08:38:39;;;;;;;6.90;6.30;;;;;;;8.52;49.39;100329.87;218230;1254;140923;-67
2023/03/29 08:43:51;;;;;;;8.50;5.30;;;;;;;8.33;48.55;100323.40;220227;1254;139452;-71
2023/03/29 08:49:01;;;;;;;7.00;3.60;;;;;;;8.21;48.99;100322.39;219489;1256;140030;-70
2023/03/29 08:54:11;;;;;;;5.40;3.30;;;;;;;8.28;48.94;100317.45;218100;1254;139794;-71
2023/03/29 08:59:30;;;;;;;3.10;2.50;;;;;;;8.41;49.06;100319.29;218391;1252;138959;-70
2023/03/29 09:04:38;;;;;;;2.70;2.50;;;;;;;8.47;48.94;100319.01;218197;1254;139777;-68
2023/03/29 09:09:45;;;;;;;3.40;2.40;;;;;;;8.55;48.39;100312.85;218307;1256;138784;-71
2023/03/29 09:14:50;;;;;;;3.40;1.80;;;;;;;8.62;47.81;100296.68;218193;1257;139035;-74
2023/03/29 09:20:26;;;;;;;1.10;1.10;;;;;;;8.62;47.93;100295.52;218317;1256;139009;-71
2023/03/29 09:25:52;;;;;;;4.90;3.30;;;;;;;8.78;47.86;100284.17;218403;1256;139716;-72
2023/03/29 09:31:13;;;;;;;3.00;1.50;;;;;;;8.89;47.96;100281.38;219523;1255;138826;-68
2023/03/29 09:36:51;;;;;;;2.90;2.70;;;;;;;9.00;47.76;100286.73;219246;1254;139236;-72
2023/03/29 09:42:06;;;;;;;3.80;2.00;;;;;;;9.04;46.79;100279.50;219132;1256;139689;-80
2023/03/29 09:47:22;;;;;;;3.90;2.40;;;;;;;9.10;46.22;100276.16;218285;1257;140679;-71
2023/03/29 09:52:26;;;;;;;3.10;2.30;;;;;;;9.21;46.38;100275.97;219279;1256;139291;-73
2023/03/29 09:57:31;;;;;;;4.60;2.20;;;;;;;9.33;46.41;100278.13;218073;1256;141055;-72
2023/03/29 10:02:35;;;;;;;2.70;1.80;;;;;;;9.50;46.25;100273.84;219836;1252;140216;-72
2023/03/29 10:07:44;;;;;;;2.50;1.90;;;;;;;9.50;45.15;100271.77;221138;1251;139330;-71
2023/03/29 10:12:50;;;;;;;1.90;1.70;;;;;;;9.53;44.79;100269.52;221128;1251;139365;-72
2023/03/29 10:18:05;;;;;;;4.20;2.60;;;;;;;9.58;44.88;100262.32;220939;1254;140453;-71
2023/03/29 10:23:17;;;;;;;4.40;2.00;;;;;;;9.60;45.00;100264.55;220493;1254;140638;-72
2023/03/29 10:28:25;;;;;;;2.10;1.80;;;;;;;9.57;44.44;100252.73;218264;1254;139446;-72
2023/03/29 10:33:33;;;;;;;1.70;1.50;;;;;;;9.66;44.87;100252.53;219658;1254;139420;-71
2023/03/29 10:38:38;;;;;;;1.70;1.60;;;;;;;9.80;44.49;100250.48;218797;1256;140211;-71
2023/03/29 10:43:45;;;;;;;1.70;1.50;;;;;;;9.93;44.57;100243.01;218668;1254;139515;-72
2023/03/29 10:49:04;;;;;;;1.70;1.50;;;;;;;10.01;44.18;100238.11;219176;1255;140596;-71
2023/03/29 10:54:13;;;;;;;2.50;1.50;;;;;;;10.13;43.93;100233.88;218202;1256;139864;-71
2023/03/29 10:59:39;;;;;;;2.40;2.10;;;;;;;10.05;43.70;100229.42;218314;1254;139794;-70
2023/03/29 11:04:51;;;;;;;2.70;1.30;;;;;;;10.06;43.52;100228.69;218217;1254;139515;-70
2023/03/29 11:10:25;;;;;;;2.80;2.00;;;;;;;10.08;42.90;100224.68;218422;1253;140684;-71
2023/03/29 11:16:01;;;;;;;1.00;0.80;;;;;;;10.10;43.06;100221.17;218707;1256;138879;-71
2023/03/29 11:21:12;;;;;;;3.40;2.00;;;;;;;10.24;42.72;100201.27;218119;1256;140539;-73
2023/03/29 11:26:26;;;;;;;2.10;1.80;;;;;;;10.35;42.85;100193.58;218935;1255;140812;-72
2023/03/29 11:32:07;;;;;;;4.50;1.60;;;;;;;10.53;42.56;100188.03;218768;1254;139755;-72
2023/03/29 11:37:38;;;;;;;2.60;1.80;;;;;;;10.51;42.11;100176.53;218972;1254;140177;-72
2023/03/29 11:42:47;;;;;;;2.90;1.80;;;;;;;10.51;41.92;100170.96;219945;1253;140348;-72
2023/03/29 11:47:53;;;;;;;3.40;2.10;;;;;;;10.51;42.23;100173.59;218256;1254;139651;-72
2023/03/29 11:53:04;;;;;;;2.70;1.90;;;;;;;10.51;41.94;100172.35;220064;1254;139378;-72
2023/03/29 11:58:22;;;;;;;2.50;1.50;;;;;;;10.54;41.77;100164.13;218852;1256;139940;-72
2023/03/29 12:04:04;;;;;;;9.60;2.40;;;;;;;10.51;41.49;100155.13;220596;1254;140285;-72
2023/03/29 12:09:24;;;;;;;1.30;1.20;;;;;;;10.51;41.09;100151.03;218070;1254;139290;-71
2023/03/29 12:14:59;;;;;;;4.00;1.90;;;;;;;10.42;40.98;100146.84;219203;1255;139641;-71
2023/03/29 12:20:28;;;;;;;3.80;1.60;;;;;;;10.36;40.82;100137.52;218744;1257;140400;-71
2023/03/29 12:25:59;;;;;;;2.50;1.60;;;;;;;10.38;41.09;100124.53;218179;1255;139443;-71
2023/03/29 12:31:19;;;;;;;2.90;1.50;;;;;;;10.39;41.41;100109.04;218938;1254;139408;-71
2023/03/29 12:37:05;;;;;;;4.60;2.50;;;;;;;10.52;41.89;100106.02;218891;1254;139345;-71
2023/03/29 12:42:18;;;;;;;3.90;1.30;;;;;;;10.57;41.84;100103.13;218853;1254;140664;-72
2023/03/29 12:47:26;;;;;;;1.60;1.50;;;;;;;10.49;41.41;100101.72;218498;1257;139594;-73
2023/03/29 12:52:34;;;;;;;3.00;2.10;;;;;;;10.52;41.59;100092.91;218196;1254;139566;-72
2023/03/29 12:57:43;;;;;;;3.00;1.40;;;;;;;10.54;41.20;100087.10;218355;1254;140280;-73
2023/03/29 13:03:03;;;;;;;2.10;1.80;;;;;;;10.62;41.46;100080.11;217954;1257;139743;-73
2023/03/29 13:08:21;;;;;;;3.80;1.40;;;;;;;10.61;41.43;100073.23;218114;1257;139567;-73
2023/03/29 13:13:37;;;;;;;2.30;2.10;;;;;;;10.55;41.83;100072.30;217749;1254;139531;-73
2023/03/29 13:19:01;;;;;;;1.90;1.30;;;;;;;10.60;41.53;100071.27;218011;1254;140140;-71
2023/03/29 13:24:21;;;;;;;3.60;2.00;;;;;;;10.49;41.39;100070.55;218077;1254;149991;-72
2023/03/29 13:29:52;;;;;;;2.50;1.60;;;;;;;10.39;41.89;100061.02;218161;1254;140167;-73
2023/03/29 13:35:15;;;;;;;2.10;1.50;;;;;;;10.36;41.66;100056.52;219227;1254;139410;-71
2023/03/29 13:40:45;;;;;;;3.20;1.80;;;;;;;10.41;41.99;100049.59;217937;1253;139134;-72
2023/03/29 13:45:58;;;;;;;2.30;1.80;;;;;;;10.41;42.25;100045.23;218164;1253;140184;-71
2023/03/29 13:51:26;;;;;;;2.50;2.00;;;;;;;10.44;42.23;100040.30;218199;1254;139433;-72
2023/03/29 13:56:51;;;;;;;3.20;2.00;;;;;;;10.44;41.87;100037.42;219115;1254;139090;-73
2023/03/29 14:01:59;;;;;;;3.60;1.70;;;;;;;10.40;42.14;100038.17;221058;1253;140971;-73
2023/03/29 14:07:07;;;;;;;3.30;2.20;;;;;;;10.31;42.10;100036.08;220266;1254;140348;-72
2023/03/29 14:12:14;;;;;;;2.40;2.20;;;;;;;10.31;42.00;100034.64;219469;1253;139612;-73
2023/03/29 14:17:21;;;;;;;3.40;2.60;;;;;;;10.35;42.49;100029.47;219738;1253;139065;-72
2023/03/29 14:22:32;;;;;;;4.60;2.00;;;;;;;10.36;42.31;100034.46;218772;1253;140256;-73
2023/03/29 14:27:36;;;;;;;4.00;2.70;;;;;;;10.23;42.34;100026.56;218145;1256;139429;-73
2023/03/29 14:32:40;;;;;;;1.50;1.40;;;;;;;10.04;42.51;100028.79;218385;1256;139997;-72
2023/03/29 14:37:45;;;;;;;2.20;1.90;;;;;;;9.97;42.42;100029.18;218515;1256;140871;-72
2023/03/29 14:42:50;;;;;;;2.40;2.00;;;;;;;9.96;42.63;100022.15;218702;1254;139259;-73
2023/03/29 14:47:54;;;;;;;4.10;3.10;;;;;;;9.85;42.55;100015.30;218327;1254;139455;-72
2023/03/29 14:52:59;;;;;;;5.90;2.80;;;;;;;9.69;42.67;100015.51;219246;1253;140084;-73
2023/03/29 14:58:15;;;;;;;5.50;2.80;;;;;;;9.59;42.74;100010.82;219624;1254;140555;-73
2023/03/29 15:03:25;;;;;;;5.20;3.00;;;;;;;9.35;42.65;100002.11;218751;1254;139440;-73
2023/03/29 15:08:36;;;;;;;3.30;2.30;;;;;;;9.16;43.26;100001.77;219136;1253;140767;-72
2023/03/29 15:13:43;;;;;;;6.40;2.90;;;;;;;8.99;43.64;99997.52;218254;1254;139449;-73
2023/03/29 15:18:51;;;;;;;3.10;2.70;;;;;;;8.85;43.60;100004.93;218524;1256;139304;-72
2023/03/29 15:23:58;;;;;;;4.90;2.40;;;;;;;8.84;44.10;99995.92;218227;1253;138866;-72
2023/03/29 15:29:22;;;;;;;4.30;2.40;;;;;;;8.88;44.55;99983.68;218984;1253;138867;-72
2023/03/29 15:34:28;;;;;;;4.90;2.90;;;;;;;8.91;44.82;99981.23;219028;1254;138601;-72
2023/03/29 15:39:32;;;;;;;5.10;2.10;;;;;;;8.92;44.65;99978.03;219362;1254;139155;-72
2023/03/29 15:44:37;;;;;;;3.20;2.60;;;;;;;8.88;45.17;99971.09;219316;1254;139681;-72
2023/03/29 15:49:41;;;;;;;3.80;2.40;;;;;;;8.80;45.23;99965.72;219441;1252;139615;-75
2023/03/29 15:54:45;;;;;;;4.30;2.30;;;;;;;8.74;45.23;99959.43;220517;1251;139733;-74
2023/03/29 15:59:50;;;;;;;5.00;3.00;;;;;;;8.68;45.34;99956.81;218796;1254;139247;-73
2023/03/29 16:04:54;;;;;;;6.70;3.30;;;;;;;8.69;45.04;99954.60;221233;1252;140652;-73
2023/03/29 16:09:58;;;;;;;3.40;2.30;;;;;;;8.65;44.92;99941.82;220773;1252;140788;-72
2023/03/29 16:15:17;;;;;;;3.90;2.10;;;;;;;8.64;44.61;99943.23;218864;1252;140086;-72
2023/03/29 16:20:21;;;;;;;3.70;2.20;;;;;;;8.57;44.75;99943.20;219640;1254;139239;-72
2023/03/29 16:25:26;;;;;;;7.80;2.40;;;;;;;8.50;45.07;99941.55;219903;1254;139367;-72
2023/03/29 16:30:31;;;;;;;4.10;1.90;;;;;;;8.43;45.01;99938.95;218853;1254;140294;-71
2023/03/29 16:35:38;;;;;;;2.50;1.40;;;;;;;8.34;44.95;99939.69;219283;1254;138931;-72
2023/03/29 16:40:44;;;;;;;4.10;2.30;;;;;;;8.10;44.58;99928.50;219082;1253;140025;-72
2023/03/29 16:45:48;;;;;;;2.80;2.30;;;;;;;7.97;45.09;99918.02;218366;1256;139854;-71
2023/03/29 16:50:51;;;;;;;5.80;3.00;;;;;;;7.81;45.22;99915.73;218302;1251;139145;-71
2023/03/29 16:55:59;;;;;;;5.80;2.90;;;;;;;7.63;45.60;99914.42;218844;1251;140032;-71
2023/03/29 17:01:12;;;;;;;7.00;4.40;;;;;;;7.45;45.83;99915.68;218998;1253;141380;-72
2023/03/29 17:06:16;;;;;;;;;;;;;;;7.24;46.20;99917.52;219269;1253;139097;-71
2023/03/29 17:11:22;;;;;;;12.80;4.30;;;;;;;7.04;46.43;99915.45;219099;1253;125213;-71
2023/03/29 17:16:27;;;;;;;4.60;2.70;;;;;;;6.89;46.73;99924.73;218534;1255;139232;-71
2023/03/29 17:21:32;;;;;;;4.70;3.90;;;;;;;6.69;47.24;99920.87;219078;1254;139040;-71
2023/03/29 17:26:37;;;;;;;14.30;5.20;;;;;;;6.47;47.45;99926.94;219178;1251;139380;-70
2023/03/29 17:31:46;;;;;;;6.60;3.50;;;;;;;6.32;47.84;99926.52;219033;1252;139075;-71
2023/03/29 17:36:52;;;;;;;6.20;3.60;;;;;;;6.09;48.15;99922.83;219007;1253;139536;-72
2023/03/29 17:41:56;;;;;;;5.60;3.90;;;;;;;5.91;48.79;99921.96;219265;1252;139554;-72
2023/03/29 17:47:00;;;;;;;7.10;3.80;;;;;;;5.82;49.56;99929.89;219916;1252;233198;-72
2023/03/29 17:52:05;;;;;;;12.10;6.60;;;;;;;5.64;50.15;99929.71;220035;1254;138887;-71
2023/03/29 17:57:10;;;;;;;7.40;6.10;;;;;;;5.39;50.74;99927.74;220802;1251;139407;-71
2023/03/29 18:02:20;;;;;;;8.50;4.90;;;;;;;5.12;51.80;99921.88;219271;1252;139046;-70
2023/03/29 18:07:24;;;;;;;17.50;8.80;;;;;;;4.92;52.46;99930.92;220415;1253;139993;-71
2023/03/29 18:12:28;;;;;;;18.50;9.10;;;;;;;4.77;52.75;99936.48;221052;1253;138992;-71
2023/03/29 18:17:34;;;;;;;18.60;9.00;;;;;;;4.68;53.00;99942.86;220383;1253;139117;-71
2023/03/29 18:22:41;;;;;;;10.70;5.90;;;;;;;4.65;53.30;99946.09;220176;1254;139926;-70
2023/03/29 18:27:45;;;;;;;14.00;8.10;;;;;;;4.52;53.82;99938.31;220695;1253;139160;-70
2023/03/29 18:32:51;;;;;;;15.70;7.50;;;;;;;4.41;53.79;99945.57;219057;1256;138754;-70
2023/03/29 18:37:57;;;;;;;25.80;10.50;;;;;;;4.32;53.89;99950.19;219537;1253;139007;-71
2023/03/29 18:43:02;;;;;;;22.80;10.70;;;;;;;4.26;53.80;99949.18;219661;1251;140090;-71
2023/03/29 18:48:06;;;;;;;20.30;8.90;;;;;;;4.25;54.12;99944.95;219447;1254;139103;-71
2023/03/29 18:53:13;;;;;;;15.60;8.40;;;;;;;4.28;54.64;99940.91;219526;1251;141340;-70
2023/03/29 18:58:22;;;;;;;;;;;;;;;4.29;54.02;99931.08;218335;1257;139628;-70
2023/03/29 19:03:26;;;;;;;14.40;9.30;;;;;;;4.27;54.21;99935.67;218511;1256;127145;-70
2023/03/29 19:08:35;;;;;;;15.00;7.90;;;;;;;4.30;54.16;99930.88;219113;1251;139217;-70
2023/03/29 19:13:45;;;;;;;11.90;7.80;;;;;;;4.34;54.10;99924.80;218836;1251;139270;-70
2023/03/29 19:18:51;;;;;;;13.70;8.90;;;;;;;4.38;53.97;99923.28;219071;1253;139675;-70
2023/03/29 19:23:54;;;;;;;23.60;8.60;;;;;;;4.41;54.21;99912.91;218420;1255;139316;-71
2023/03/29 19:29:00;;;;;;;20.00;11.20;;;;;;;4.42;53.86;99906.40;218377;1254;139396;-71
2023/03/29 19:34:09;;;;;;;15.20;8.90;;;;;;;4.44;53.94;99900.55;218016;1251;1235766;-72
2023/03/29 19:39:14;;;;;;;15.10;9.40;;;;;;;4.44;53.96;99890.70;218255;1251;139274;-71
2023/03/29 19:44:22;;;;;;;13.70;7.40;;;;;;;4.46;54.18;99891.88;219054;1256;141182;-72
2023/03/29 19:49:28;;;;;;;19.40;9.10;;;;;;;4.46;54.03;99887.27;218308;1255;139679;-69
2023/03/29 19:54:33;;;;;;;19.50;8.70;;;;;;;4.44;54.08;99879.77;218355;1252;139520;-72
2023/03/29 19:59:39;;;;;;;14.30;9.00;;;;;;;4.43;53.96;99872.73;219332;1251;139782;-72
2023/03/29 20:04:45;;;;;;;14.10;8.40;;;;;;;4.42;54.05;99867.16;221068;1253;139136;-73
2023/03/29 20:09:50;;;;;;;11.30;8.40;;;;;;;4.40;54.23;99864.88;220333;1251;138943;-69
2023/03/29 20:14:54;;;;;;;14.20;8.90;;;;;;;4.39;54.04;99868.40;220898;1251;139406;-72
2023/03/29 20:19:59;;;;;;;13.10;7.60;;;;;;;4.37;54.17;99868.95;218221;1252;139117;-72
2023/03/29 20:25:04;;;;;;;9.70;6.50;;;;;;;4.34;54.20;99868.35;220596;1251;139781;-73
2023/03/29 20:30:09;;;;;;;15.60;8.80;;;;;;;4.24;54.60;99860.95;220161;1254;139152;-71
2023/03/29 20:35:14;;;;;;;17.30;8.60;;;;;;;4.20;54.86;99855.63;220178;1253;139484;-69
2023/03/29 20:40:19;;;;;;;17.70;8.50;;;;;;;4.12;54.81;99852.64;219134;1254;139918;-70
2023/03/29 20:45:24;;;;;;;14.40;8.90;;;;;;;4.07;54.98;99843.90;218258;1255;138940;-69
2023/03/29 20:50:29;;;;;;;15.10;6.90;;;;;;;3.99;55.62;99841.89;218735;1251;139302;-68
2023/03/29 20:55:34;;;;;;;18.80;8.80;;;;;;;3.92;55.77;99842.15;218444;1254;140309;-75
2023/03/29 21:00:39;;;;;;;13.10;8.00;;;;;;;3.84;55.45;99841.91;218264;1256;138777;-69
2023/03/29 21:05:43;;;;;;;18.70;9.40;;;;;;;3.72;55.87;99839.61;218660;1251;140488;-69
2023/03/29 21:10:48;;;;;;;15.60;10.30;;;;;;;3.62;56.06;99839.84;218633;1251;139121;-69
2023/03/29 21:15:52;;;;;;;20.60;10.60;;;;;;;3.53;56.70;99845.33;218321;1256;139871;-72
2023/03/29 21:20:56;;;;;;;22.40;8.80;;;;;;;3.45;56.83;99843.45;218272;1255;140443;-73
2023/03/29 21:26:01;;;;;;;17.10;9.20;;;;;;;3.35;56.80;99839.29;218432;1254;139738;-69
2023/03/29 21:31:06;;;;;;;19.80;9.50;;;;;;;3.25;57.31;99836.27;218873;1253;139162;-69
2023/03/29 21:36:11;;;;;;;24.20;11.50;;;;;;;3.20;57.48;99837.61;218383;1254;139426;-65
2023/03/29 21:41:16;;;;;;;12.60;8.00;;;;;;;3.17;57.67;99828.83;218466;1252;138923;-75
2023/03/29 21:46:23;;;;;;;18.90;10.20;;;;;;;3.18;57.97;99828.35;219204;1254;140503;-65
2023/03/29 21:51:27;;;;;;;19.10;9.50;;;;;;;3.21;58.37;99830.91;218563;1253;139156;-71
2023/03/29 21:56:31;;;;;;;20.50;11.10;;;;;;;3.25;58.60;99840.84;218994;1251;141085;-66
2023/03/29 22:01:36;;;;;;;19.30;9.30;;;;;;;3.29;58.71;99838.55;220016;1254;139817;-66
2023/03/29 22:06:41;;;;;;;21.60;10.90;;;;;;;3.33;58.80;99832.02;218370;1254;141008;-68
2023/03/29 22:11:47;;;;;;;19.30;9.50;;;;;;;3.34;58.99;99829.14;220997;1254;141088;-77
2023/03/29 22:16:51;;;;;;;20.40;11.00;;;;;;;3.36;59.08;99828.77;220724;1253;139564;-67
2023/03/29 22:22:00;;;;;;;15.10;9.90;;;;;;;3.39;59.26;99818.97;221047;1254;139453;-67
2023/03/29 22:27:05;;;;;;;16.90;11.90;;;;;;;3.42;59.24;99812.24;220287;1254;138953;-68
2023/03/29 22:32:09;;;;;;;18.50;11.40;;;;;;;3.45;59.72;99808.70;218866;1254;139578;-70
2023/03/29 22:37:14;;;;;;;19.60;9.70;;;;;;;3.46;59.52;99799.11;220047;1251;138891;-65
2023/03/29 22:42:22;;;;;;;22.30;10.70;;;;;;;3.45;59.96;99790.39;218319;1256;139845;-67
2023/03/29 22:48:07;;;;;;;23.50;10.30;;;;;;;3.47;60.16;99789.35;219300;1254;249227;-67
2023/03/29 22:53:12;;;;;;;19.00;10.10;;;;;;;3.47;60.14;99778.93;219216;1251;140861;-66
2023/03/29 22:58:20;;;;;;;13.60;8.30;;;;;;;3.51;60.53;99773.78;219704;1253;139225;-65
2023/03/29 23:03:52;;;;;;;20.20;10.60;;;;;;;3.56;60.56;99774.73;218289;1251;139328;-65
2023/03/29 23:08:56;;;;;;;18.30;9.70;;;;;;;3.58;60.95;99774.06;218981;1252;139810;-67
2023/03/29 23:14:04;;;;;;;14.40;9.30;;;;;;;3.61;60.82;99776.13;219588;1253;140485;-67
2023/03/29 23:19:09;;;;;;;15.10;8.10;;;;;;;3.63;61.03;99765.20;218739;1253;139455;-66
2023/03/29 23:24:15;;;;;;;17.30;11.10;;;;;;;3.67;60.91;99770.52;218365;1256;139593;-67
2023/03/29 23:29:25;;;;;;;17.90;8.20;;;;;;;3.71;60.60;99770.91;218811;1251;139053;-70
2023/03/29 23:34:29;;;;;;;19.10;9.80;;;;;;;3.73;60.91;99761.81;218973;1253;142872;-70